Historyczne dane pomiarowe

Dodano dane terminowe – wersja testowa.

Dane z okresu 1951-2019

Wersja bazy: 1.34 [2019-03-16, lista zmian], aktualizacja planowana na 2019-04-15

Dane meteo z obszaru Polski uzyskane na podstawie danych udostępnionych przez Instytut Meteorologii i Gospodarki Wodnej – Państwowy Instytut Badawczy.

 

Wybierz Datę:    

       

TemperaturaWilgotnośćWiatrCiśnienieOpadyŚniegCzas trwania zjawisk
 Stacja t tx tn tng RH VA  wxwx mslp ppp RRR   cm mm wxwxwxwxwxwxwx
2000-05-15 16.6 23.5 9.6 6.9 58.8 11.4 1.0 5.7--1022.2 989.2 0.0 0.0 0.0- 0.0 13.9-------
2000-05-16 19.9 26.2 13.2 10.8 49.0 11.3 1.7 3.3--1017.8 985.3 0.0 0.0 0.0- 0.0 13.6-------
2000-05-17 19.2 26.9 9.7 8.4 54.8 12.9 2.7 3.7--1013.9 981.6 0.0 0.0 0.0- 0.0 12.4-------
2000-05-18 21.0 27.9 12.8 10.1 48.8 12.6 4.0 1.3--1007.5 975.5 0.0 0.0 0.0- 0.0 12.5-------
2000-05-19 16.9 23.8 12.2 10.0 74.5 15.4 5.0 2.3--1005.7 973.2 12.0 9.9 2.1- 0.0 8.7-------
2000-05-20 13.3 16.5 10.3 9.3 78.8 12.1 6.7 2.0--1007.8 974.8 21.4 0.0 21.4- 0.0 4.1-------
2000-05-21 10.5 15.0 7.5 6.5 86.3 10.4 7.3 3.0--1008.9 975.4 0.3 0.3 0.0- 0.0 1.2-------
2000-05-22 14.1 19.9 7.6 5.5 65.5 11.1 6.3 2.7--1010.9 978.0 11.3 0.0 11.3- 0.0 9.8-------
2000-05-23 11.6 16.4 8.3 7.8 90.5 12.4 7.3 2.3--1015.7 982.2 0.6 0.6 0.0- 0.0 0.2-------
2000-05-24 14.9 20.3 9.2 7.3 71.0 12.1 3.0 1.7--1019.1 986.0 0.0 0.0 0.0- 0.0 12.8-------
2000-05-25 17.8 23.9 12.1 8.8 63.0 12.6 2.7 2.0--1017.1 984.4 0.0 0.0 0.0- 0.0 11.8-------
2000-05-26 19.6 23.4 14.4 10.3 65.3 16.5 2.7 2.3--1019.0 986.4 0.0 0.0 0.0- 0.0 12.6-------
2000-05-27 20.9 28.0 13.8 11.3 63.8 16.0 1.3 2.3--1015.8 983.6 0.0 0.0 0.0- 0.0 12.9-------
2000-05-28 22.1 28.8 16.0 12.1 58.8 15.4 2.3 1.3--1012.9 980.8 0.0 0.0 0.0- 0.0 13.8-------
2000-05-29 17.2 24.5 11.2 10.8 80.0 15.5 6.0 4.3--1010.6 977.8 10.0 9.2 0.8- 0.0 6.5-------
2000-05-30 12.2 16.4 9.3 8.4 74.5 9.9 4.3 3.7--1016.7 983.3 0.0 0.0 0.0- 0.0 7.9-------
2000-05-31 10.9 16.5 5.0 4.4 81.5 11.8 7.7 2.3--1015.6 982.2 2.6 1.0 1.6- 0.0 1.3-------
2000-06-01 11.6 14.9 9.2 8.6 87.5 11.3 6.3 3.3--1024.7 990.8 0.9 0.9 0.0- 0.0 2.4-------
2000-06-02 14.1 19.9 6.5 5.9 69.3 11.6 0.7 2.0--1025.7 992.4 0.0 0.0 0.0- 0.0 14.2-------
2000-06-03 18.4 26.1 8.7 6.4 62.0 14.5 0.3 1.7--1021.2 988.5 0.0 0.0 0.0- 0.0 14.4-------
2000-06-04 21.9 28.2 14.8 11.9 62.8 17.5 0.3 1.7--1018.6 986.3 0.0 0.0 0.0- 0.0 14.4-------
2000-06-05 22.7 29.9 13.5 12.4 56.0 17.2 2.3 2.0--1016.5 984.5 0.0 0.0 0.0- 0.0 12.3-------
2000-06-06 21.9 30.3 13.5 12.6 60.3 17.0 2.7 3.0--1011.3 979.4 2.8 0.0 2.8- 0.0 13.0-------
2000-06-07 16.0 22.1 12.6 11.9 90.8 14.6 7.7 3.7--1016.3 983.0 1.8 1.7 0.1- 0.0 0.0-------
2000-06-08 14.2 18.3 9.2 8.7 65.3 10.9 4.0 6.0--1022.2 988.9 0.0 0.0 0.0- 0.0 14.0-------
2000-06-09 15.9 21.9 7.7 6.6 58.8 11.6 0.3 1.3--1023.3 990.3 0.0 0.0 0.0- 0.0 14.9-------
2000-06-10 18.0 24.8 9.9 5.4 57.5 12.6 0.0 5.7--1021.1 988.4 0.0 0.0 0.0- 0.0 15.2-------
2000-06-11 22.2 31.8 12.7 8.8 58.3 15.9 0.3 1.7--1017.9 985.7 0.0 0.0 0.0- 0.0 14.7-------
2000-06-12 25.2 31.2 19.7 15.8 58.5 20.0 4.7 4.0--1020.5 988.5 0.0 0.0 0.0- 0.0 8.8-------
2000-06-13 22.0 26.0 18.8 17.4 58.5 15.5 1.0 1.7--1025.9 993.3 0.0 0.0 0.0- 0.0 13.3-------
195.0 ms

 

Źródłem pochodzenia danych jest Instytut Meteorologii i Gospodarki Wodnej – Państwowy Instytut Badawczy. Dane Instytutu Meteorologii i Gospodarki Wodnej – Państwowego Instytutu Badawczego zostały przetworzone.

Dane źródłowe można odnaleźć na stronie https://dane.imgw.pl